sensor_id;sensor_type;location;lat;lon;timestamp;P1;durP1;ratioP1;P2;durP2;ratioP2
31537;SDS011;18147;51.952;6.146;2023-04-06T00:01:21;29.13;;;11.88;;
31537;SDS011;18147;51.952;6.146;2023-04-06T00:03:46;26.33;;;12.20;;
31537;SDS011;18147;51.952;6.146;2023-04-06T00:06:12;28.08;;;12.93;;
31537;SDS011;18147;51.952;6.146;2023-04-06T00:08:38;35.85;;;12.95;;
31537;SDS011;18147;51.952;6.146;2023-04-06T00:11:03;28.83;;;11.85;;
31537;SDS011;18147;51.952;6.146;2023-04-06T00:13:29;26.95;;;11.75;;
31537;SDS011;18147;51.952;6.146;2023-04-06T00:15:54;33.95;;;14.02;;
31537;SDS011;18147;51.952;6.146;2023-04-06T00:18:35;28.27;;;13.25;;
31537;SDS011;18147;51.952;6.146;2023-04-06T00:21:00;28.48;;;11.77;;
31537;SDS011;18147;51.952;6.146;2023-04-06T00:23:26;25.83;;;11.95;;
31537;SDS011;18147;51.952;6.146;2023-04-06T00:25:51;25.45;;;11.55;;
31537;SDS011;18147;51.952;6.146;2023-04-06T00:28:17;31.52;;;11.63;;
31537;SDS011;18147;51.952;6.146;2023-04-06T00:30:42;35.35;;;13.05;;
31537;SDS011;18147;51.952;6.146;2023-04-06T00:33:08;31.95;;;14.05;;
31537;SDS011;18147;51.952;6.146;2023-04-06T00:35:33;28.35;;;12.07;;
31537;SDS011;18147;51.952;6.146;2023-04-06T00:37:59;30.48;;;11.95;;
31537;SDS011;18147;51.952;6.146;2023-04-06T00:40:25;24.85;;;12.48;;
31537;SDS011;18147;51.952;6.146;2023-04-06T00:42:52;38.70;;;14.38;;
31537;SDS011;18147;51.952;6.146;2023-04-06T00:45:18;23.67;;;11.40;;
31537;SDS011;18147;51.952;6.146;2023-04-06T00:47:43;26.10;;;12.90;;
31537;SDS011;18147;51.952;6.146;2023-04-06T00:50:09;37.97;;;14.48;;
31537;SDS011;18147;51.952;6.146;2023-04-06T00:52:35;26.58;;;11.60;;
31537;SDS011;18147;51.952;6.146;2023-04-06T00:55:02;32.20;;;13.45;;
31537;SDS011;18147;51.952;6.146;2023-04-06T00:57:28;23.90;;;11.52;;
31537;SDS011;18147;51.952;6.146;2023-04-06T00:59:55;23.17;;;11.48;;
31537;SDS011;18147;51.952;6.146;2023-04-06T01:02:21;24.55;;;11.88;;
31537;SDS011;18147;51.952;6.146;2023-04-06T01:04:50;26.40;;;11.38;;
31537;SDS011;18147;51.952;6.146;2023-04-06T01:07:27;32.58;;;13.20;;
31537;SDS011;18147;51.952;6.146;2023-04-06T01:10:03;33.13;;;12.52;;
31537;SDS011;18147;51.952;6.146;2023-04-06T01:12:34;29.13;;;12.75;;
31537;SDS011;18147;51.952;6.146;2023-04-06T01:15:07;30.25;;;12.13;;
31537;SDS011;18147;51.952;6.146;2023-04-06T01:17:38;32.08;;;14.98;;
31537;SDS011;18147;51.952;6.146;2023-04-06T01:20:10;30.50;;;13.80;;
31537;SDS011;18147;51.952;6.146;2023-04-06T01:22:36;30.75;;;14.75;;
31537;SDS011;18147;51.952;6.146;2023-04-06T01:25:02;32.22;;;13.63;;
31537;SDS011;18147;51.952;6.146;2023-04-06T01:27:39;29.88;;;13.27;;
31537;SDS011;18147;51.952;6.146;2023-04-06T01:30:10;23.17;;;10.13;;
31537;SDS011;18147;51.952;6.146;2023-04-06T01:32:44;26.35;;;13.48;;
31537;SDS011;18147;51.952;6.146;2023-04-06T01:35:18;36.42;;;14.00;;
31537;SDS011;18147;51.952;6.146;2023-04-06T01:37:55;28.92;;;14.07;;
31537;SDS011;18147;51.952;6.146;2023-04-06T01:40:27;31.05;;;14.10;;
31537;SDS011;18147;51.952;6.146;2023-04-06T01:42:53;37.90;;;14.98;;
31537;SDS011;18147;51.952;6.146;2023-04-06T01:45:27;31.45;;;14.52;;
31537;SDS011;18147;51.952;6.146;2023-04-06T01:47:58;35.50;;;13.93;;
31537;SDS011;18147;51.952;6.146;2023-04-06T01:50:26;33.50;;;14.93;;
31537;SDS011;18147;51.952;6.146;2023-04-06T01:52:51;28.52;;;13.23;;
31537;SDS011;18147;51.952;6.146;2023-04-06T01:55:17;28.08;;;12.15;;
31537;SDS011;18147;51.952;6.146;2023-04-06T02:00:33;28.50;;;14.07;;
31537;SDS011;18147;51.952;6.146;2023-04-06T02:03:00;27.10;;;12.05;;
31537;SDS011;18147;51.952;6.146;2023-04-06T02:05:29;30.50;;;13.10;;
31537;SDS011;18147;51.952;6.146;2023-04-06T02:07:56;25.55;;;11.75;;
31537;SDS011;18147;51.952;6.146;2023-04-06T02:10:30;24.67;;;12.20;;
31537;SDS011;18147;51.952;6.146;2023-04-06T02:13:01;32.33;;;13.90;;
31537;SDS011;18147;51.952;6.146;2023-04-06T02:15:28;28.45;;;13.23;;
31537;SDS011;18147;51.952;6.146;2023-04-06T02:17:53;25.40;;;13.27;;
31537;SDS011;18147;51.952;6.146;2023-04-06T02:20:19;29.98;;;13.15;;
31537;SDS011;18147;51.952;6.146;2023-04-06T02:22:45;25.77;;;12.93;;
31537;SDS011;18147;51.952;6.146;2023-04-06T02:25:11;22.67;;;11.07;;
31537;SDS011;18147;51.952;6.146;2023-04-06T02:27:38;25.05;;;12.15;;
31537;SDS011;18147;51.952;6.146;2023-04-06T02:30:07;25.58;;;12.48;;
31537;SDS011;18147;51.952;6.146;2023-04-06T02:32:34;27.98;;;13.05;;
31537;SDS011;18147;51.952;6.146;2023-04-06T02:35:00;28.40;;;12.13;;
31537;SDS011;18147;51.952;6.146;2023-04-06T02:37:33;25.55;;;12.93;;
31537;SDS011;18147;51.952;6.146;2023-04-06T02:40:05;25.40;;;12.15;;
31537;SDS011;18147;51.952;6.146;2023-04-06T02:42:31;28.08;;;12.27;;
31537;SDS011;18147;51.952;6.146;2023-04-06T02:44:58;27.27;;;13.18;;
31537;SDS011;18147;51.952;6.146;2023-04-06T02:47:28;25.35;;;11.82;;
31537;SDS011;18147;51.952;6.146;2023-04-06T02:49:54;19.95;;;11.02;;
31537;SDS011;18147;51.952;6.146;2023-04-06T02:52:19;27.88;;;12.00;;
31537;SDS011;18147;51.952;6.146;2023-04-06T02:54:45;23.63;;;11.32;;
31537;SDS011;18147;51.952;6.146;2023-04-06T02:57:11;26.95;;;11.43;;
31537;SDS011;18147;51.952;6.146;2023-04-06T02:59:41;23.67;;;10.98;;
31537;SDS011;18147;51.952;6.146;2023-04-06T03:02:15;24.33;;;11.25;;
31537;SDS011;18147;51.952;6.146;2023-04-06T03:04:42;21.02;;;10.45;;
31537;SDS011;18147;51.952;6.146;2023-04-06T03:07:20;24.23;;;12.27;;
31537;SDS011;18147;51.952;6.146;2023-04-06T03:09:45;26.85;;;11.93;;
31537;SDS011;18147;51.952;6.146;2023-04-06T03:12:11;24.05;;;12.40;;
31537;SDS011;18147;51.952;6.146;2023-04-06T03:15:00;22.10;;;11.57;;
31537;SDS011;18147;51.952;6.146;2023-04-06T03:17:25;24.63;;;12.85;;
31537;SDS011;18147;51.952;6.146;2023-04-06T03:19:53;23.55;;;12.43;;
31537;SDS011;18147;51.952;6.146;2023-04-06T03:22:22;29.27;;;14.88;;
31537;SDS011;18147;51.952;6.146;2023-04-06T03:24:48;25.42;;;12.10;;
31537;SDS011;18147;51.952;6.146;2023-04-06T03:27:13;20.67;;;11.13;;
31537;SDS011;18147;51.952;6.146;2023-04-06T03:29:40;27.85;;;11.25;;
31537;SDS011;18147;51.952;6.146;2023-04-06T03:32:08;20.50;;;11.00;;
31537;SDS011;18147;51.952;6.146;2023-04-06T03:34:38;18.73;;;10.18;;
31537;SDS011;18147;51.952;6.146;2023-04-06T03:37:05;19.67;;;10.40;;
31537;SDS011;18147;51.952;6.146;2023-04-06T03:39:31;23.48;;;12.02;;
31537;SDS011;18147;51.952;6.146;2023-04-06T03:41:59;18.83;;;10.07;;
31537;SDS011;18147;51.952;6.146;2023-04-06T03:44:32;22.48;;;10.98;;
31537;SDS011;18147;51.952;6.146;2023-04-06T03:46:58;23.25;;;11.85;;
31537;SDS011;18147;51.952;6.146;2023-04-06T03:49:24;27.73;;;11.63;;
31537;SDS011;18147;51.952;6.146;2023-04-06T03:51:52;25.95;;;12.52;;
31537;SDS011;18147;51.952;6.146;2023-04-06T03:54:19;21.98;;;10.65;;
31537;SDS011;18147;51.952;6.146;2023-04-06T03:57:17;20.40;;;10.35;;
31537;SDS011;18147;51.952;6.146;2023-04-06T03:59:43;27.30;;;10.80;;
31537;SDS011;18147;51.952;6.146;2023-04-06T04:02:09;23.40;;;10.63;;
31537;SDS011;18147;51.952;6.146;2023-04-06T04:04:34;24.15;;;11.52;;
31537;SDS011;18147;51.952;6.146;2023-04-06T04:07:00;24.95;;;11.85;;
31537;SDS011;18147;51.952;6.146;2023-04-06T04:09:25;24.77;;;10.65;;
31537;SDS011;18147;51.952;6.146;2023-04-06T04:11:51;24.95;;;11.95;;
31537;SDS011;18147;51.952;6.146;2023-04-06T04:14:16;22.70;;;10.32;;
31537;SDS011;18147;51.952;6.146;2023-04-06T04:16:42;25.30;;;11.27;;
31537;SDS011;18147;51.952;6.146;2023-04-06T04:19:07;23.02;;;11.18;;
31537;SDS011;18147;51.952;6.146;2023-04-06T04:21:33;29.75;;;13.68;;
31537;SDS011;18147;51.952;6.146;2023-04-06T04:24:05;23.67;;;11.32;;
31537;SDS011;18147;51.952;6.146;2023-04-06T04:26:33;24.15;;;11.43;;
31537;SDS011;18147;51.952;6.146;2023-04-06T04:28:59;25.00;;;12.38;;
31537;SDS011;18147;51.952;6.146;2023-04-06T04:31:25;22.15;;;11.05;;
31537;SDS011;18147;51.952;6.146;2023-04-06T04:33:55;25.20;;;12.38;;
31537;SDS011;18147;51.952;6.146;2023-04-06T04:36:26;25.67;;;12.13;;
31537;SDS011;18147;51.952;6.146;2023-04-06T04:38:54;27.60;;;12.27;;
31537;SDS011;18147;51.952;6.146;2023-04-06T04:41:19;25.85;;;12.05;;
31537;SDS011;18147;51.952;6.146;2023-04-06T04:43:47;25.30;;;11.32;;
31537;SDS011;18147;51.952;6.146;2023-04-06T04:46:15;22.85;;;11.90;;
31537;SDS011;18147;51.952;6.146;2023-04-06T04:48:42;23.65;;;12.07;;
31537;SDS011;18147;51.952;6.146;2023-04-06T04:51:07;27.10;;;11.90;;
31537;SDS011;18147;51.952;6.146;2023-04-06T04:53:56;22.42;;;11.77;;
31537;SDS011;18147;51.952;6.146;2023-04-06T04:56:25;27.52;;;12.23;;
31537;SDS011;18147;51.952;6.146;2023-04-06T04:58:58;24.90;;;12.00;;
31537;SDS011;18147;51.952;6.146;2023-04-06T05:01:26;22.52;;;11.30;;
31537;SDS011;18147;51.952;6.146;2023-04-06T05:03:51;35.65;;;13.38;;
31537;SDS011;18147;51.952;6.146;2023-04-06T05:06:17;27.75;;;13.45;;
31537;SDS011;18147;51.952;6.146;2023-04-06T05:08:44;28.80;;;13.50;;
31537;SDS011;18147;51.952;6.146;2023-04-06T05:11:09;26.30;;;12.68;;
31537;SDS011;18147;51.952;6.146;2023-04-06T05:13:40;30.13;;;11.73;;
31537;SDS011;18147;51.952;6.146;2023-04-06T05:16:11;27.95;;;12.98;;
31537;SDS011;18147;51.952;6.146;2023-04-06T05:18:37;23.02;;;11.77;;
31537;SDS011;18147;51.952;6.146;2023-04-06T05:21:04;24.73;;;12.05;;
31537;SDS011;18147;51.952;6.146;2023-04-06T05:23:38;28.58;;;13.43;;
31537;SDS011;18147;51.952;6.146;2023-04-06T05:26:04;32.72;;;12.70;;
31537;SDS011;18147;51.952;6.146;2023-04-06T05:28:31;31.80;;;12.70;;
31537;SDS011;18147;51.952;6.146;2023-04-06T05:30:57;28.63;;;13.65;;
31537;SDS011;18147;51.952;6.146;2023-04-06T05:33:25;29.02;;;13.23;;
31537;SDS011;18147;51.952;6.146;2023-04-06T05:36:09;29.02;;;13.57;;
31537;SDS011;18147;51.952;6.146;2023-04-06T05:38:39;26.88;;;12.55;;
31537;SDS011;18147;51.952;6.146;2023-04-06T05:41:15;30.00;;;13.77;;
31537;SDS011;18147;51.952;6.146;2023-04-06T05:43:41;31.00;;;13.32;;
31537;SDS011;18147;51.952;6.146;2023-04-06T05:46:07;24.15;;;12.77;;
31537;SDS011;18147;51.952;6.146;2023-04-06T05:48:33;29.23;;;12.60;;
31537;SDS011;18147;51.952;6.146;2023-04-06T05:50:59;26.13;;;12.50;;
31537;SDS011;18147;51.952;6.146;2023-04-06T05:53:34;33.40;;;12.80;;
31537;SDS011;18147;51.952;6.146;2023-04-06T05:56:02;26.85;;;13.50;;
31537;SDS011;18147;51.952;6.146;2023-04-06T05:58:28;23.25;;;12.85;;
31537;SDS011;18147;51.952;6.146;2023-04-06T06:01:01;28.67;;;13.52;;
31537;SDS011;18147;51.952;6.146;2023-04-06T06:03:36;29.02;;;12.65;;
31537;SDS011;18147;51.952;6.146;2023-04-06T06:06:04;28.15;;;13.23;;
31537;SDS011;18147;51.952;6.146;2023-04-06T06:08:39;28.05;;;13.15;;
31537;SDS011;18147;51.952;6.146;2023-04-06T06:11:11;30.23;;;12.88;;
31537;SDS011;18147;51.952;6.146;2023-04-06T06:13:36;28.35;;;14.50;;
31537;SDS011;18147;51.952;6.146;2023-04-06T06:16:03;29.80;;;12.70;;
31537;SDS011;18147;51.952;6.146;2023-04-06T06:18:34;25.10;;;12.23;;
31537;SDS011;18147;51.952;6.146;2023-04-06T06:21:01;31.25;;;15.05;;
31537;SDS011;18147;51.952;6.146;2023-04-06T06:23:41;23.52;;;12.05;;
31537;SDS011;18147;51.952;6.146;2023-04-06T06:26:08;26.75;;;13.15;;
31537;SDS011;18147;51.952;6.146;2023-04-06T06:28:38;28.27;;;14.13;;
31537;SDS011;18147;51.952;6.146;2023-04-06T06:31:03;26.98;;;12.85;;
31537;SDS011;18147;51.952;6.146;2023-04-06T06:33:33;22.98;;;12.18;;
31537;SDS011;18147;51.952;6.146;2023-04-06T06:36:01;26.50;;;13.10;;
31537;SDS011;18147;51.952;6.146;2023-04-06T06:38:26;25.65;;;12.88;;
31537;SDS011;18147;51.952;6.146;2023-04-06T06:40:52;27.17;;;12.45;;
31537;SDS011;18147;51.952;6.146;2023-04-06T06:43:18;27.40;;;12.55;;
31537;SDS011;18147;51.952;6.146;2023-04-06T06:45:53;29.23;;;13.13;;
31537;SDS011;18147;51.952;6.146;2023-04-06T06:48:19;26.63;;;13.55;;
31537;SDS011;18147;51.952;6.146;2023-04-06T06:50:46;23.73;;;13.13;;
31537;SDS011;18147;51.952;6.146;2023-04-06T06:53:13;30.88;;;14.27;;
31537;SDS011;18147;51.952;6.146;2023-04-06T06:55:38;29.85;;;14.10;;
31537;SDS011;18147;51.952;6.146;2023-04-06T06:58:04;32.67;;;13.55;;
31537;SDS011;18147;51.952;6.146;2023-04-06T07:00:31;24.23;;;12.77;;
31537;SDS011;18147;51.952;6.146;2023-04-06T07:02:57;29.15;;;13.20;;
31537;SDS011;18147;51.952;6.146;2023-04-06T07:05:22;27.20;;;13.73;;
31537;SDS011;18147;51.952;6.146;2023-04-06T07:07:48;26.48;;;13.48;;
31537;SDS011;18147;51.952;6.146;2023-04-06T07:10:13;29.27;;;13.30;;
31537;SDS011;18147;51.952;6.146;2023-04-06T07:12:39;30.67;;;13.30;;
31537;SDS011;18147;51.952;6.146;2023-04-06T07:15:05;24.30;;;13.52;;
31537;SDS011;18147;51.952;6.146;2023-04-06T07:17:33;30.17;;;14.13;;
31537;SDS011;18147;51.952;6.146;2023-04-06T07:19:59;27.30;;;13.20;;
31537;SDS011;18147;51.952;6.146;2023-04-06T07:22:25;26.65;;;14.23;;
31537;SDS011;18147;51.952;6.146;2023-04-06T07:24:51;23.98;;;14.35;;
31537;SDS011;18147;51.952;6.146;2023-04-06T07:27:17;29.92;;;14.82;;
31537;SDS011;18147;51.952;6.146;2023-04-06T07:29:44;27.05;;;13.63;;
31537;SDS011;18147;51.952;6.146;2023-04-06T07:32:10;29.40;;;13.75;;
31537;SDS011;18147;51.952;6.146;2023-04-06T07:34:36;30.60;;;14.25;;
31537;SDS011;18147;51.952;6.146;2023-04-06T07:37:01;27.88;;;15.00;;
31537;SDS011;18147;51.952;6.146;2023-04-06T07:39:28;29.42;;;14.77;;
31537;SDS011;18147;51.952;6.146;2023-04-06T07:41:55;30.15;;;14.77;;
31537;SDS011;18147;51.952;6.146;2023-04-06T07:44:21;28.75;;;14.80;;
31537;SDS011;18147;51.952;6.146;2023-04-06T07:46:47;26.40;;;14.00;;
31537;SDS011;18147;51.952;6.146;2023-04-06T07:49:13;29.73;;;14.35;;
31537;SDS011;18147;51.952;6.146;2023-04-06T07:51:39;26.73;;;13.98;;
31537;SDS011;18147;51.952;6.146;2023-04-06T07:54:05;29.60;;;15.52;;
31537;SDS011;18147;51.952;6.146;2023-04-06T07:56:31;24.88;;;12.93;;
31537;SDS011;18147;51.952;6.146;2023-04-06T07:58:56;26.17;;;13.43;;
31537;SDS011;18147;51.952;6.146;2023-04-06T08:01:23;28.15;;;14.90;;
31537;SDS011;18147;51.952;6.146;2023-04-06T08:03:49;27.95;;;14.20;;
31537;SDS011;18147;51.952;6.146;2023-04-06T08:06:15;30.38;;;14.75;;
31537;SDS011;18147;51.952;6.146;2023-04-06T08:08:42;22.92;;;13.38;;
31537;SDS011;18147;51.952;6.146;2023-04-06T08:11:07;30.77;;;15.18;;
31537;SDS011;18147;51.952;6.146;2023-04-06T08:13:33;32.53;;;15.00;;
31537;SDS011;18147;51.952;6.146;2023-04-06T08:16:00;26.85;;;14.02;;
31537;SDS011;18147;51.952;6.146;2023-04-06T08:18:26;25.35;;;14.50;;
31537;SDS011;18147;51.952;6.146;2023-04-06T08:20:51;27.48;;;14.45;;
31537;SDS011;18147;51.952;6.146;2023-04-06T08:23:16;22.20;;;12.90;;
31537;SDS011;18147;51.952;6.146;2023-04-06T08:25:42;29.58;;;15.15;;
31537;SDS011;18147;51.952;6.146;2023-04-06T08:28:08;30.20;;;15.93;;
31537;SDS011;18147;51.952;6.146;2023-04-06T08:30:34;32.50;;;15.43;;
31537;SDS011;18147;51.952;6.146;2023-04-06T08:33:00;31.70;;;15.85;;
31537;SDS011;18147;51.952;6.146;2023-04-06T08:35:26;28.17;;;15.30;;
31537;SDS011;18147;51.952;6.146;2023-04-06T08:37:52;28.75;;;16.48;;
31537;SDS011;18147;51.952;6.146;2023-04-06T08:40:18;32.33;;;15.00;;
31537;SDS011;18147;51.952;6.146;2023-04-06T08:42:49;27.30;;;15.20;;
31537;SDS011;18147;51.952;6.146;2023-04-06T08:45:17;30.30;;;15.90;;
31537;SDS011;18147;51.952;6.146;2023-04-06T08:47:46;31.23;;;16.08;;
31537;SDS011;18147;51.952;6.146;2023-04-06T08:50:18;28.67;;;16.30;;
31537;SDS011;18147;51.952;6.146;2023-04-06T08:52:47;30.80;;;15.10;;
31537;SDS011;18147;51.952;6.146;2023-04-06T08:55:13;29.98;;;15.52;;
31537;SDS011;18147;51.952;6.146;2023-04-06T08:57:40;36.05;;;16.70;;
31537;SDS011;18147;51.952;6.146;2023-04-06T09:00:07;34.28;;;16.25;;
31537;SDS011;18147;51.952;6.146;2023-04-06T09:02:36;30.52;;;14.98;;
31537;SDS011;18147;51.952;6.146;2023-04-06T09:05:06;27.45;;;13.98;;
31537;SDS011;18147;51.952;6.146;2023-04-06T09:07:35;28.33;;;14.77;;
31537;SDS011;18147;51.952;6.146;2023-04-06T09:10:01;32.03;;;17.48;;
31537;SDS011;18147;51.952;6.146;2023-04-06T09:12:27;29.92;;;15.20;;
31537;SDS011;18147;51.952;6.146;2023-04-06T09:14:55;27.60;;;14.93;;
31537;SDS011;18147;51.952;6.146;2023-04-06T09:17:22;27.67;;;16.13;;
31537;SDS011;18147;51.952;6.146;2023-04-06T09:19:51;31.33;;;16.63;;
31537;SDS011;18147;51.952;6.146;2023-04-06T09:22:17;33.22;;;16.63;;
31537;SDS011;18147;51.952;6.146;2023-04-06T09:27:13;33.03;;;15.60;;
31537;SDS011;18147;51.952;6.146;2023-04-06T09:29:44;28.45;;;15.52;;
31537;SDS011;18147;51.952;6.146;2023-04-06T09:32:10;27.40;;;15.80;;
31537;SDS011;18147;51.952;6.146;2023-04-06T09:34:39;24.70;;;14.10;;
31537;SDS011;18147;51.952;6.146;2023-04-06T09:37:15;22.83;;;13.63;;
31537;SDS011;18147;51.952;6.146;2023-04-06T09:39:43;30.30;;;15.15;;
31537;SDS011;18147;51.952;6.146;2023-04-06T09:42:09;26.55;;;14.45;;
31537;SDS011;18147;51.952;6.146;2023-04-06T09:44:35;28.83;;;15.63;;
31537;SDS011;18147;51.952;6.146;2023-04-06T09:47:01;28.80;;;14.77;;
31537;SDS011;18147;51.952;6.146;2023-04-06T09:49:31;30.08;;;16.20;;
31537;SDS011;18147;51.952;6.146;2023-04-06T09:52:07;28.65;;;15.80;;
31537;SDS011;18147;51.952;6.146;2023-04-06T09:54:36;29.75;;;14.57;;
31537;SDS011;18147;51.952;6.146;2023-04-06T10:00:05;27.42;;;17.20;;
31537;SDS011;18147;51.952;6.146;2023-04-06T10:02:41;32.13;;;17.52;;
31537;SDS011;18147;51.952;6.146;2023-04-06T10:05:18;28.88;;;14.23;;
31537;SDS011;18147;51.952;6.146;2023-04-06T10:07:50;29.63;;;16.52;;
31537;SDS011;18147;51.952;6.146;2023-04-06T10:10:20;29.52;;;15.90;;
31537;SDS011;18147;51.952;6.146;2023-04-06T10:12:47;29.15;;;16.13;;
31537;SDS011;18147;51.952;6.146;2023-04-06T10:15:14;28.48;;;15.30;;
31537;SDS011;18147;51.952;6.146;2023-04-06T10:17:41;28.83;;;15.63;;
31537;SDS011;18147;51.952;6.146;2023-04-06T10:20:18;35.85;;;17.08;;
31537;SDS011;18147;51.952;6.146;2023-04-06T10:22:51;30.80;;;17.33;;
31537;SDS011;18147;51.952;6.146;2023-04-06T10:25:31;32.55;;;16.25;;
31537;SDS011;18147;51.952;6.146;2023-04-06T10:28:02;30.60;;;16.50;;
31537;SDS011;18147;51.952;6.146;2023-04-06T10:30:32;32.13;;;15.88;;
31537;SDS011;18147;51.952;6.146;2023-04-06T10:32:59;29.95;;;16.05;;
31537;SDS011;18147;51.952;6.146;2023-04-06T10:35:35;41.38;;;17.77;;
31537;SDS011;18147;51.952;6.146;2023-04-06T10:38:03;35.25;;;16.00;;
31537;SDS011;18147;51.952;6.146;2023-04-06T10:40:30;27.95;;;15.25;;
31537;SDS011;18147;51.952;6.146;2023-04-06T10:43:13;32.92;;;16.48;;
31537;SDS011;18147;51.952;6.146;2023-04-06T10:45:43;36.03;;;15.80;;
31537;SDS011;18147;51.952;6.146;2023-04-06T10:48:13;26.73;;;13.15;;
31537;SDS011;18147;51.952;6.146;2023-04-06T10:50:44;26.48;;;14.10;;
31537;SDS011;18147;51.952;6.146;2023-04-06T10:53:10;31.05;;;13.93;;
31537;SDS011;18147;51.952;6.146;2023-04-06T10:55:38;26.95;;;14.70;;
31537;SDS011;18147;51.952;6.146;2023-04-06T10:58:06;30.73;;;13.55;;
31537;SDS011;18147;51.952;6.146;2023-04-06T11:00:33;26.27;;;13.82;;
31537;SDS011;18147;51.952;6.146;2023-04-06T11:02:59;29.15;;;13.98;;
31537;SDS011;18147;51.952;6.146;2023-04-06T11:05:26;28.30;;;13.80;;
31537;SDS011;18147;51.952;6.146;2023-04-06T11:07:51;30.30;;;15.98;;
31537;SDS011;18147;51.952;6.146;2023-04-06T11:10:23;28.40;;;15.20;;
31537;SDS011;18147;51.952;6.146;2023-04-06T11:12:52;30.77;;;13.35;;
31537;SDS011;18147;51.952;6.146;2023-04-06T11:15:20;31.02;;;16.02;;
31537;SDS011;18147;51.952;6.146;2023-04-06T11:17:46;31.35;;;14.98;;
31537;SDS011;18147;51.952;6.146;2023-04-06T11:20:11;26.77;;;12.65;;
31537;SDS011;18147;51.952;6.146;2023-04-06T11:22:47;26.13;;;12.68;;
31537;SDS011;18147;51.952;6.146;2023-04-06T11:25:14;26.42;;;13.23;;
31537;SDS011;18147;51.952;6.146;2023-04-06T11:27:42;29.98;;;14.40;;
31537;SDS011;18147;51.952;6.146;2023-04-06T11:30:08;30.52;;;14.63;;
31537;SDS011;18147;51.952;6.146;2023-04-06T11:32:41;21.40;;;12.00;;
31537;SDS011;18147;51.952;6.146;2023-04-06T11:35:26;32.42;;;12.13;;
31537;SDS011;18147;51.952;6.146;2023-04-06T11:37:52;22.23;;;12.68;;
31537;SDS011;18147;51.952;6.146;2023-04-06T11:40:21;25.63;;;12.52;;
31537;SDS011;18147;51.952;6.146;2023-04-06T11:42:55;22.38;;;13.00;;
31537;SDS011;18147;51.952;6.146;2023-04-06T11:47:55;25.83;;;13.02;;
31537;SDS011;18147;51.952;6.146;2023-04-06T11:50:24;26.13;;;13.60;;
31537;SDS011;18147;51.952;6.146;2023-04-06T11:53:00;28.98;;;14.07;;
31537;SDS011;18147;51.952;6.146;2023-04-06T11:55:28;25.52;;;13.32;;
31537;SDS011;18147;51.952;6.146;2023-04-06T11:57:53;21.10;;;13.23;;
31537;SDS011;18147;51.952;6.146;2023-04-06T12:00:20;24.83;;;14.23;;
31537;SDS011;18147;51.952;6.146;2023-04-06T12:02:46;36.03;;;12.60;;
31537;SDS011;18147;51.952;6.146;2023-04-06T12:05:13;25.95;;;14.68;;
31537;SDS011;18147;51.952;6.146;2023-04-06T12:07:41;29.23;;;13.65;;
31537;SDS011;18147;51.952;6.146;2023-04-06T12:10:10;27.67;;;14.07;;
31537;SDS011;18147;51.952;6.146;2023-04-06T12:12:36;24.92;;;13.43;;
31537;SDS011;18147;51.952;6.146;2023-04-06T12:15:01;23.67;;;13.07;;
31537;SDS011;18147;51.952;6.146;2023-04-06T12:17:27;23.48;;;13.07;;
31537;SDS011;18147;51.952;6.146;2023-04-06T12:19:53;23.85;;;12.85;;
31537;SDS011;18147;51.952;6.146;2023-04-06T12:22:18;24.50;;;12.43;;
31537;SDS011;18147;51.952;6.146;2023-04-06T12:24:47;25.77;;;13.25;;
31537;SDS011;18147;51.952;6.146;2023-04-06T12:27:13;18.05;;;11.18;;
31537;SDS011;18147;51.952;6.146;2023-04-06T12:29:38;20.40;;;9.68;;
31537;SDS011;18147;51.952;6.146;2023-04-06T12:32:05;23.50;;;10.70;;
31537;SDS011;18147;51.952;6.146;2023-04-06T12:34:31;18.48;;;10.40;;
31537;SDS011;18147;51.952;6.146;2023-04-06T12:36:56;18.05;;;8.63;;
31537;SDS011;18147;51.952;6.146;2023-04-06T12:39:22;16.63;;;9.10;;
31537;SDS011;18147;51.952;6.146;2023-04-06T12:41:48;23.20;;;10.32;;
31537;SDS011;18147;51.952;6.146;2023-04-06T12:44:14;18.30;;;8.88;;
31537;SDS011;18147;51.952;6.146;2023-04-06T12:46:40;14.68;;;8.65;;
31537;SDS011;18147;51.952;6.146;2023-04-06T12:49:08;19.77;;;9.18;;
31537;SDS011;18147;51.952;6.146;2023-04-06T12:51:36;19.85;;;10.40;;
31537;SDS011;18147;51.952;6.146;2023-04-06T12:54:02;17.88;;;9.50;;
31537;SDS011;18147;51.952;6.146;2023-04-06T12:56:27;16.65;;;8.85;;
31537;SDS011;18147;51.952;6.146;2023-04-06T12:58:53;19.77;;;10.27;;
31537;SDS011;18147;51.952;6.146;2023-04-06T13:01:18;17.20;;;9.45;;
31537;SDS011;18147;51.952;6.146;2023-04-06T13:03:44;14.85;;;8.43;;
31537;SDS011;18147;51.952;6.146;2023-04-06T13:06:10;14.48;;;8.18;;
31537;SDS011;18147;51.952;6.146;2023-04-06T13:08:36;16.05;;;8.32;;
31537;SDS011;18147;51.952;6.146;2023-04-06T13:11:03;16.08;;;8.00;;
31537;SDS011;18147;51.952;6.146;2023-04-06T13:13:35;17.58;;;8.48;;
31537;SDS011;18147;51.952;6.146;2023-04-06T13:16:02;16.42;;;8.02;;
31537;SDS011;18147;51.952;6.146;2023-04-06T13:18:31;14.70;;;7.28;;
31537;SDS011;18147;51.952;6.146;2023-04-06T13:20:57;16.48;;;8.02;;
31537;SDS011;18147;51.952;6.146;2023-04-06T13:23:24;16.67;;;6.93;;
31537;SDS011;18147;51.952;6.146;2023-04-06T13:26:01;15.45;;;7.15;;
31537;SDS011;18147;51.952;6.146;2023-04-06T13:28:28;15.13;;;7.75;;
31537;SDS011;18147;51.952;6.146;2023-04-06T13:30:55;12.88;;;7.55;;
31537;SDS011;18147;51.952;6.146;2023-04-06T13:33:22;12.80;;;7.90;;
31537;SDS011;18147;51.952;6.146;2023-04-06T13:35:50;12.30;;;7.32;;
31537;SDS011;18147;51.952;6.146;2023-04-06T13:38:15;15.98;;;7.70;;
31537;SDS011;18147;51.952;6.146;2023-04-06T13:40:42;13.80;;;8.07;;
31537;SDS011;18147;51.952;6.146;2023-04-06T13:43:08;11.23;;;7.32;;
31537;SDS011;18147;51.952;6.146;2023-04-06T13:45:33;16.08;;;7.95;;
31537;SDS011;18147;51.952;6.146;2023-04-06T13:48:08;14.52;;;7.35;;
31537;SDS011;18147;51.952;6.146;2023-04-06T13:50:33;13.90;;;7.38;;
31537;SDS011;18147;51.952;6.146;2023-04-06T13:53:00;11.90;;;7.20;;
31537;SDS011;18147;51.952;6.146;2023-04-06T13:55:25;13.77;;;7.50;;
31537;SDS011;18147;51.952;6.146;2023-04-06T13:57:51;20.33;;;9.57;;
31537;SDS011;18147;51.952;6.146;2023-04-06T14:00:16;14.15;;;8.05;;
31537;SDS011;18147;51.952;6.146;2023-04-06T14:02:42;16.33;;;8.82;;
31537;SDS011;18147;51.952;6.146;2023-04-06T14:05:09;17.48;;;9.68;;
31537;SDS011;18147;51.952;6.146;2023-04-06T14:07:35;17.10;;;8.65;;
31537;SDS011;18147;51.952;6.146;2023-04-06T14:10:01;16.13;;;8.10;;
31537;SDS011;18147;51.952;6.146;2023-04-06T14:12:27;15.40;;;9.25;;
31537;SDS011;18147;51.952;6.146;2023-04-06T14:14:52;17.17;;;9.90;;
31537;SDS011;18147;51.952;6.146;2023-04-06T14:17:18;16.17;;;8.77;;
31537;SDS011;18147;51.952;6.146;2023-04-06T14:19:44;15.35;;;8.77;;
31537;SDS011;18147;51.952;6.146;2023-04-06T14:22:10;18.65;;;9.02;;
31537;SDS011;18147;51.952;6.146;2023-04-06T14:24:35;16.33;;;7.88;;
31537;SDS011;18147;51.952;6.146;2023-04-06T14:27:02;16.63;;;8.07;;
31537;SDS011;18147;51.952;6.146;2023-04-06T14:29:28;17.90;;;8.70;;
31537;SDS011;18147;51.952;6.146;2023-04-06T14:31:53;14.95;;;8.20;;
31537;SDS011;18147;51.952;6.146;2023-04-06T14:34:28;16.17;;;7.68;;
31537;SDS011;18147;51.952;6.146;2023-04-06T14:36:53;17.85;;;9.00;;
31537;SDS011;18147;51.952;6.146;2023-04-06T14:39:19;17.95;;;8.82;;